createdAt,value
2018-11-03T00:00:35.209Z,4.45
2018-11-03T00:02:28.002Z,4.48
2018-11-03T00:03:27.969Z,4.41
2018-11-03T00:05:20.768Z,4.44
2018-11-03T00:06:20.720Z,4.44
2018-11-03T00:08:13.513Z,4.34
2018-11-03T00:09:13.464Z,4.40
2018-11-03T00:11:06.278Z,4.37
2018-11-03T00:12:06.222Z,4.28
2018-11-03T00:13:59.013Z,4.28
2018-11-03T00:14:58.974Z,4.34
2018-11-03T00:16:51.784Z,4.34
2018-11-03T00:17:51.714Z,4.37
2018-11-03T00:19:44.539Z,4.30
2018-11-03T00:20:44.476Z,4.26
2018-11-03T00:22:37.284Z,4.32
2018-11-03T00:23:37.224Z,4.35
2018-11-03T00:25:30.054Z,4.31
2018-11-03T00:26:29.991Z,4.22
2018-11-03T00:28:22.800Z,4.20
2018-11-03T00:29:22.759Z,4.23
2018-11-03T00:31:15.560Z,4.23
2018-11-03T00:32:15.516Z,4.14
2018-11-03T00:34:08.298Z,4.17
2018-11-03T00:35:08.261Z,4.20
2018-11-03T00:37:01.090Z,4.10
2018-11-03T00:38:01.015Z,4.10
2018-11-03T00:39:53.845Z,4.08
2018-11-03T00:40:53.788Z,4.16
2018-11-03T00:42:46.619Z,4.08
2018-11-03T00:43:46.545Z,4.14
2018-11-03T00:45:39.345Z,4.22
2018-11-03T00:46:39.350Z,4.14
2018-11-03T00:48:32.140Z,4.16
2018-11-03T00:49:32.055Z,4.20
2018-11-03T00:51:24.867Z,4.17
2018-11-03T00:52:24.796Z,4.19
2018-11-03T00:54:17.589Z,4.10
2018-11-03T00:55:17.549Z,4.16
2018-11-03T00:57:10.364Z,4.12
2018-11-03T00:58:10.288Z,4.14
2018-11-03T01:00:03.101Z,4.17
2018-11-03T01:01:03.060Z,4.20
2018-11-03T01:02:55.871Z,4.19
2018-11-03T01:03:55.805Z,4.14
2018-11-03T01:05:48.600Z,4.13
2018-11-03T01:06:48.558Z,4.08
2018-11-03T01:08:41.362Z,3.99
2018-11-03T01:09:41.302Z,3.96
2018-11-03T01:11:34.122Z,3.95
2018-11-03T01:12:34.046Z,3.98
2018-11-03T01:14:26.854Z,4.01
2018-11-03T01:15:26.802Z,3.98
2018-11-03T01:17:19.618Z,3.91
2018-11-03T01:18:19.563Z,3.91
2018-11-03T01:20:12.353Z,3.88
2018-11-03T01:21:12.316Z,3.84
2018-11-03T01:23:05.122Z,3.92
2018-11-03T01:24:05.056Z,3.81
2018-11-03T01:25:57.850Z,3.83
2018-11-03T01:26:57.813Z,3.81
2018-11-03T01:28:51.101Z,3.87
2018-11-03T01:29:51.051Z,3.83
2018-11-03T01:31:44.336Z,3.83
2018-11-03T01:32:44.308Z,3.80
2018-11-03T01:34:37.105Z,3.83
2018-11-03T01:35:37.039Z,3.83
2018-11-03T01:37:29.860Z,3.83
2018-11-03T01:38:29.804Z,3.83
2018-11-03T01:40:22.599Z,3.87
2018-11-03T01:41:22.547Z,3.78
2018-11-03T01:43:15.867Z,3.83
2018-11-03T01:44:15.804Z,3.86
2018-11-03T01:46:08.598Z,3.81
2018-11-03T01:47:08.563Z,3.84
2018-11-03T01:49:01.376Z,3.84
2018-11-03T01:50:01.314Z,3.81
2018-11-03T01:51:54.102Z,3.86
2018-11-03T01:52:54.064Z,3.91
2018-11-03T01:54:47.376Z,3.91
2018-11-03T01:55:47.307Z,3.88
2018-11-03T01:57:40.610Z,3.95
2018-11-03T01:58:40.563Z,3.91
2018-11-03T02:00:33.878Z,3.91
2018-11-03T02:01:33.815Z,3.92
2018-11-03T02:03:26.622Z,3.98
2018-11-03T02:04:26.580Z,3.88
2018-11-03T02:06:19.883Z,3.87
2018-11-03T02:07:19.831Z,3.84
2018-11-03T02:09:12.624Z,3.88
2018-11-03T02:10:12.579Z,3.87
2018-11-03T02:12:05.388Z,3.86
2018-11-03T02:13:05.331Z,3.92
2018-11-03T02:14:58.146Z,4.04
2018-11-03T02:15:58.092Z,3.98
2018-11-03T02:17:51.399Z,4.05
2018-11-03T02:18:51.349Z,4.02
2018-11-03T02:20:44.655Z,3.95
2018-11-03T02:21:44.589Z,4.10
2018-11-03T02:23:37.890Z,4.23
2018-11-03T02:24:37.846Z,4.08
2018-11-03T02:26:31.179Z,4.10
2018-11-03T02:27:31.121Z,4.13
2018-11-03T02:29:23.906Z,4.10
2018-11-03T02:30:23.856Z,4.13
2018-11-03T02:32:16.685Z,4.17
2018-11-03T02:33:16.601Z,4.14
2018-11-03T02:35:09.917Z,4.16
2018-11-03T02:36:09.861Z,4.14
2018-11-03T02:38:02.670Z,4.19
2018-11-03T02:39:02.625Z,4.16
2018-11-03T02:40:55.904Z,4.19
2018-11-03T02:41:55.866Z,4.17
2018-11-03T02:43:49.156Z,4.13
2018-11-03T02:44:49.115Z,4.17
2018-11-03T02:46:41.922Z,4.17
2018-11-03T02:47:41.856Z,4.22
2018-11-03T02:49:35.151Z,4.23
2018-11-03T02:50:35.138Z,4.20
2018-11-03T02:52:27.916Z,4.24
2018-11-03T02:53:27.853Z,4.19
2018-11-03T02:55:20.653Z,4.30
2018-11-03T02:56:20.621Z,4.23
2018-11-03T02:58:13.417Z,4.31
2018-11-03T02:59:13.377Z,4.20
2018-11-03T03:01:06.154Z,4.24
2018-11-03T03:02:06.107Z,4.26
2018-11-03T03:03:58.912Z,4.16
2018-11-03T03:04:58.889Z,4.26
2018-11-03T03:06:51.677Z,4.23
2018-11-03T03:07:51.605Z,4.16
2018-11-03T03:09:44.907Z,4.19
2018-11-03T03:10:44.857Z,4.22
2018-11-03T03:12:38.177Z,4.20
2018-11-03T03:13:38.103Z,4.23
2018-11-03T03:15:31.414Z,4.16
2018-11-03T03:16:31.417Z,4.19
2018-11-03T03:18:24.666Z,4.06
2018-11-03T03:19:24.627Z,4.06
2018-11-03T03:21:17.911Z,4.19
2018-11-03T03:22:17.853Z,4.13
2018-11-03T03:24:11.174Z,4.14
2018-11-03T03:25:11.127Z,4.13
2018-11-03T03:27:04.431Z,3.95
2018-11-03T03:28:04.397Z,4.02
2018-11-03T03:29:57.208Z,4.12
2018-11-03T03:30:57.148Z,4.06
2018-11-03T03:32:50.434Z,4.01
2018-11-03T03:33:50.388Z,3.96
2018-11-03T03:35:43.698Z,4.06
2018-11-03T03:36:43.634Z,4.08
2018-11-03T03:38:36.954Z,4.13
2018-11-03T03:39:36.893Z,4.05
2018-11-03T03:41:30.184Z,4.05
2018-11-03T03:42:30.179Z,4.02
2018-11-03T03:44:23.438Z,4.05
2018-11-03T03:45:23.374Z,3.92
2018-11-03T03:47:16.195Z,4.08
2018-11-03T03:48:16.133Z,4.16
2018-11-03T03:50:09.492Z,4.13
2018-11-03T03:51:09.385Z,4.02
2018-11-03T03:53:02.680Z,4.08
2018-11-03T03:54:02.627Z,4.01
2018-11-03T03:55:55.436Z,4.08
2018-11-03T03:56:55.388Z,4.05
2018-11-03T03:58:48.187Z,4.10
2018-11-03T03:59:48.139Z,3.99
2018-11-03T04:01:40.958Z,3.95
2018-11-03T04:02:40.895Z,4.14
2018-11-03T04:04:34.194Z,3.95
2018-11-03T04:05:34.153Z,4.06
2018-11-03T04:07:27.572Z,3.96
2018-11-03T04:08:27.414Z,4.02
2018-11-03T04:10:20.220Z,3.99
2018-11-03T04:11:20.154Z,4.04
2018-11-03T04:13:13.443Z,4.01
2018-11-03T04:14:13.409Z,4.04
2018-11-03T04:16:06.212Z,3.96
2018-11-03T04:17:06.161Z,4.01
2018-11-03T04:18:58.949Z,3.91
2018-11-03T04:19:58.906Z,3.92
2018-11-03T04:21:51.716Z,3.91
2018-11-03T04:22:51.665Z,3.86
2018-11-03T04:24:44.451Z,3.95
2018-11-03T04:25:44.448Z,3.87
2018-11-03T04:27:37.715Z,3.86
2018-11-03T04:28:37.667Z,3.83
2018-11-03T04:30:30.965Z,3.92
2018-11-03T04:31:30.921Z,3.91
2018-11-03T04:33:23.742Z,3.91
2018-11-03T04:34:23.672Z,3.83
2018-11-03T04:36:16.508Z,3.88
2018-11-03T04:37:16.448Z,3.88
2018-11-03T04:39:09.738Z,3.81
2018-11-03T04:40:09.697Z,3.91
2018-11-03T04:42:02.521Z,3.91
2018-11-03T04:43:02.451Z,3.81
2018-11-03T04:44:55.748Z,3.83
2018-11-03T04:45:55.703Z,3.86
2018-11-03T04:47:48.511Z,3.84
2018-11-03T04:48:48.458Z,3.78
2018-11-03T04:50:41.738Z,3.81
2018-11-03T04:51:41.708Z,3.80
2018-11-03T04:53:34.997Z,3.77
2018-11-03T04:54:34.949Z,3.80
2018-11-03T04:56:27.736Z,3.83
2018-11-03T04:57:27.696Z,3.83
2018-11-03T04:59:20.512Z,3.74
2018-11-03T05:00:20.447Z,3.81
2018-11-03T05:02:13.752Z,3.74
2018-11-03T05:03:13.694Z,3.70
2018-11-03T05:05:06.984Z,3.77
2018-11-03T05:06:06.938Z,3.80
2018-11-03T05:08:00.232Z,3.76
2018-11-03T05:09:00.182Z,3.62
2018-11-03T05:10:53.467Z,3.65
2018-11-03T05:11:53.441Z,3.69
2018-11-03T05:13:46.262Z,3.65
2018-11-03T05:14:46.207Z,3.69
2018-11-03T05:16:38.997Z,3.66
2018-11-03T05:17:38.954Z,3.66
2018-11-03T05:19:31.773Z,3.66
2018-11-03T05:20:31.712Z,3.58
2018-11-03T05:22:24.993Z,3.59
2018-11-03T05:23:24.947Z,3.66
2018-11-03T05:25:17.753Z,3.58
2018-11-03T05:26:17.704Z,3.65
2018-11-03T05:28:10.510Z,3.63
2018-11-03T05:29:10.458Z,3.62
2018-11-03T05:31:03.304Z,3.58
2018-11-03T05:32:03.207Z,3.62
2018-11-03T05:33:56.018Z,3.51
2018-11-03T05:34:55.958Z,3.53
2018-11-03T05:36:49.249Z,3.55
2018-11-03T05:37:49.204Z,3.62
2018-11-03T05:39:42.005Z,3.47
2018-11-03T05:40:41.964Z,3.55
2018-11-03T05:42:34.758Z,3.58
2018-11-03T05:43:34.716Z,3.45
2018-11-03T05:45:27.515Z,3.44
2018-11-03T05:46:27.469Z,3.50
2018-11-03T05:48:20.260Z,3.51
2018-11-03T05:49:20.217Z,3.48
2018-11-03T05:51:13.034Z,3.42
2018-11-03T05:52:12.969Z,3.44
2018-11-03T05:54:05.759Z,3.47
2018-11-03T05:55:05.719Z,3.50
2018-11-03T05:56:59.015Z,3.42
2018-11-03T05:57:58.960Z,3.50
2018-11-03T05:59:51.764Z,3.45
2018-11-03T06:00:51.704Z,3.47
2018-11-03T06:02:44.990Z,3.45
2018-11-03T06:03:44.956Z,3.47
2018-11-03T06:05:38.275Z,3.44
2018-11-03T06:06:38.215Z,3.44
2018-11-03T06:08:31.035Z,3.37
2018-11-03T06:09:30.986Z,3.44
2018-11-03T06:11:24.287Z,3.48
2018-11-03T06:12:24.234Z,3.42
2018-11-03T06:14:17.027Z,3.40
2018-11-03T06:15:17.019Z,3.40
2018-11-03T06:17:09.792Z,3.41
2018-11-03T06:18:09.737Z,3.45
2018-11-03T06:20:02.522Z,3.44
2018-11-03T06:21:02.488Z,3.41
2018-11-03T06:22:55.872Z,3.29
2018-11-03T06:23:55.742Z,3.42
2018-11-03T06:25:49.013Z,3.32
2018-11-03T06:26:48.968Z,3.41
2018-11-03T06:28:42.283Z,3.41
2018-11-03T06:29:42.218Z,3.36
2018-11-03T06:31:35.011Z,3.42
2018-11-03T06:32:34.968Z,3.31
2018-11-03T06:34:28.274Z,3.37
2018-11-03T06:35:28.366Z,3.41
2018-11-03T06:37:21.517Z,3.44
2018-11-03T06:38:21.462Z,3.47
2018-11-03T06:40:14.242Z,3.45
2018-11-03T06:41:14.212Z,3.42
2018-11-03T06:43:07.530Z,3.45
2018-11-03T06:44:07.480Z,3.50
2018-11-03T06:46:00.268Z,3.50
2018-11-03T06:47:00.217Z,3.55
2018-11-03T06:48:53.029Z,3.51
2018-11-03T06:49:52.969Z,3.55
2018-11-03T06:51:46.258Z,3.56
2018-11-03T06:52:46.252Z,3.62
2018-11-03T06:54:39.514Z,3.59
2018-11-03T06:55:39.483Z,3.59
2018-11-03T06:57:32.769Z,3.63
2018-11-03T06:58:32.729Z,3.62
2018-11-03T07:00:26.027Z,3.60
2018-11-03T07:01:25.984Z,3.59
2018-11-03T07:03:19.293Z,3.65
2018-11-03T07:04:19.224Z,3.74
2018-11-03T07:06:12.023Z,3.69
2018-11-03T07:07:11.992Z,3.77
2018-11-03T07:09:04.787Z,3.78
2018-11-03T07:10:04.719Z,3.74
2018-11-03T07:11:57.585Z,3.80
2018-11-03T07:12:57.619Z,3.86
2018-11-03T07:14:50.288Z,3.91
2018-11-03T07:15:50.224Z,3.92
2018-11-03T07:17:43.009Z,3.95
2018-11-03T07:18:42.969Z,3.87
2018-11-03T07:20:36.273Z,3.99
2018-11-03T07:21:36.276Z,4.10
2018-11-03T07:23:29.016Z,4.05
2018-11-03T07:24:28.985Z,4.17
2018-11-03T07:26:21.779Z,4.13
2018-11-03T07:27:21.725Z,4.17
2018-11-03T07:29:14.535Z,4.10
2018-11-03T07:30:14.474Z,4.16
2018-11-03T07:32:07.766Z,4.20
2018-11-03T07:33:07.723Z,4.26
2018-11-03T07:35:00.538Z,4.30
2018-11-03T07:36:00.483Z,4.31
2018-11-03T07:37:53.265Z,4.30
2018-11-03T07:38:53.227Z,4.30
2018-11-03T07:40:46.089Z,4.38
2018-11-03T07:41:45.981Z,4.42
2018-11-03T07:43:38.768Z,4.38
2018-11-03T07:44:38.767Z,4.45
2018-11-03T07:46:31.534Z,4.37
2018-11-03T07:47:31.474Z,4.38
2018-11-03T07:49:24.354Z,4.38
2018-11-03T07:50:24.236Z,4.42
2018-11-03T07:52:17.025Z,4.45
2018-11-03T07:53:16.981Z,4.45
2018-11-03T07:55:09.826Z,4.63
2018-11-03T07:56:09.730Z,4.62
2018-11-03T07:58:02.526Z,4.74
2018-11-03T07:59:02.480Z,4.68
2018-11-03T08:00:55.290Z,4.74
2018-11-03T08:01:55.231Z,4.78
2018-11-03T08:03:48.035Z,4.78
2018-11-03T08:04:47.986Z,4.93
2018-11-03T08:06:40.790Z,4.90
2018-11-03T08:07:40.734Z,5.00
2018-11-03T08:09:33.526Z,5.02
2018-11-03T08:10:33.480Z,4.97
2018-11-03T08:12:26.789Z,5.08
2018-11-03T08:13:26.736Z,5.07
2018-11-03T08:15:20.045Z,5.05
2018-11-03T08:16:19.997Z,5.12
2018-11-03T08:18:12.801Z,5.23
2018-11-03T08:19:12.742Z,5.21
2018-11-03T08:21:05.551Z,5.28
2018-11-03T08:22:05.509Z,5.36
2018-11-03T08:23:58.522Z,5.48
2018-11-03T08:24:58.270Z,5.43
2018-11-03T08:26:51.053Z,5.61
2018-11-03T08:27:51.003Z,5.47
2018-11-03T08:29:43.795Z,5.61
2018-11-03T08:30:43.760Z,5.62
2018-11-03T08:32:36.567Z,5.66
2018-11-03T08:33:36.502Z,5.65
2018-11-03T08:35:29.792Z,5.68
2018-11-03T08:36:29.752Z,5.71
2018-11-03T08:38:22.563Z,5.73
2018-11-03T08:39:22.548Z,5.80
2018-11-03T08:41:15.303Z,5.89
2018-11-03T08:42:15.253Z,5.89
2018-11-03T08:44:08.082Z,6.02
2018-11-03T08:45:08.019Z,6.07
2018-11-03T08:47:00.818Z,6.11
2018-11-03T08:48:00.796Z,6.14
2018-11-03T08:49:53.604Z,6.17
2018-11-03T08:50:53.526Z,6.27
2018-11-03T08:52:46.827Z,6.28
2018-11-03T08:53:46.787Z,6.38
2018-11-03T08:55:39.583Z,6.49
2018-11-03T08:56:39.534Z,6.49
2018-11-03T08:58:32.365Z,6.62
2018-11-03T08:59:32.341Z,6.72
2018-11-03T09:01:25.090Z,6.62
2018-11-03T09:02:25.057Z,6.69
2018-11-03T09:04:18.377Z,6.79
2018-11-03T09:05:18.327Z,6.72
2018-11-03T09:07:11.294Z,6.87
2018-11-03T09:08:11.090Z,6.88
2018-11-03T09:10:04.380Z,7.07
2018-11-03T09:11:04.349Z,6.96
2018-11-03T09:12:57.139Z,7.05
2018-11-03T09:13:57.105Z,7.18
2018-11-03T09:15:49.952Z,7.15
2018-11-03T09:16:49.903Z,7.28
2018-11-03T09:18:42.698Z,7.36
2018-11-03T09:19:42.655Z,7.33
2018-11-03T09:21:35.522Z,7.45
2018-11-03T09:22:35.488Z,7.50
2018-11-03T09:24:28.223Z,7.53
2018-11-03T09:25:28.178Z,7.66
2018-11-03T09:27:20.968Z,7.75
2018-11-03T09:28:20.936Z,7.91
2018-11-03T09:30:14.250Z,8.01
2018-11-03T09:31:14.194Z,8.18
2018-11-03T09:33:06.990Z,8.30
2018-11-03T09:34:06.960Z,8.31
2018-11-03T09:35:59.777Z,8.84
2018-11-03T09:36:59.719Z,9.04
2018-11-03T09:38:53.045Z,9.72
2018-11-03T09:39:52.982Z,9.77
2018-11-03T09:41:46.294Z,10.28
2018-11-03T09:42:46.278Z,10.41
2018-11-03T09:44:39.534Z,10.90
2018-11-03T09:45:39.500Z,11.19
2018-11-03T09:47:32.358Z,11.51
2018-11-03T09:48:32.276Z,11.62
2018-11-03T09:50:25.648Z,11.88
2018-11-03T09:51:25.554Z,11.95
2018-11-03T09:53:18.841Z,12.04
2018-11-03T09:54:18.810Z,12.10
2018-11-03T09:56:12.121Z,12.43
2018-11-03T09:57:12.070Z,12.64
2018-11-03T09:59:05.371Z,12.95
2018-11-03T10:00:05.350Z,13.05
2018-11-03T10:01:58.661Z,13.31
2018-11-03T10:02:58.610Z,13.38
2018-11-03T10:04:51.922Z,13.53
2018-11-03T10:05:51.890Z,13.60
2018-11-03T10:07:45.217Z,13.59
2018-11-03T10:08:45.173Z,13.79
2018-11-03T10:10:38.462Z,14.26
2018-11-03T10:11:38.437Z,14.53
2018-11-03T10:13:31.782Z,15.03
2018-11-03T10:14:31.731Z,15.36
2018-11-03T10:16:24.525Z,15.59
2018-11-03T10:17:24.505Z,15.92
2018-11-03T10:19:17.827Z,16.41
2018-11-03T10:20:17.772Z,16.54
2018-11-03T10:22:11.205Z,16.65
2018-11-03T10:23:11.054Z,16.84
2018-11-03T10:25:03.872Z,17.24
2018-11-03T10:26:03.841Z,17.46
2018-11-03T10:27:56.677Z,17.59
2018-11-03T10:28:56.619Z,17.54
2018-11-03T10:30:49.444Z,17.85
2018-11-03T10:31:49.408Z,18.00
2018-11-03T10:33:42.318Z,18.26
2018-11-03T10:34:42.201Z,18.23
2018-11-03T10:36:35.017Z,18.25
2018-11-03T10:37:34.979Z,18.22
2018-11-03T10:39:27.827Z,18.22
2018-11-03T10:40:27.759Z,18.28
2018-11-03T10:42:20.583Z,18.34
2018-11-03T10:43:20.559Z,18.41
2018-11-03T10:45:13.383Z,18.38
2018-11-03T10:46:13.472Z,18.34
2018-11-03T10:48:06.177Z,18.08
2018-11-03T10:49:06.119Z,17.85
2018-11-03T10:50:58.959Z,17.65
2018-11-03T10:51:58.911Z,17.71
2018-11-03T10:53:51.733Z,17.54
2018-11-03T10:54:51.693Z,17.24
2018-11-03T10:56:44.517Z,17.16
2018-11-03T10:57:44.478Z,17.23
2018-11-03T10:59:37.307Z,17.26
2018-11-03T11:00:37.264Z,17.05
2018-11-03T11:02:30.082Z,17.01
2018-11-03T11:03:30.071Z,16.71
2018-11-03T11:05:22.874Z,16.51
2018-11-03T11:06:22.829Z,16.35
2018-11-03T11:08:15.649Z,16.13
2018-11-03T11:09:15.607Z,16.08
2018-11-03T11:11:08.453Z,15.98
2018-11-03T11:12:08.394Z,15.97
2018-11-03T11:14:01.263Z,16.00
2018-11-03T11:15:01.173Z,16.10
2018-11-03T11:16:54.113Z,16.31
2018-11-03T11:17:53.952Z,16.36
2018-11-03T11:19:46.816Z,16.46
2018-11-03T11:20:46.728Z,16.58
2018-11-03T11:22:39.553Z,16.74
2018-11-03T11:23:39.594Z,16.72
2018-11-03T11:25:32.473Z,16.69
2018-11-03T11:26:32.294Z,16.65
2018-11-03T11:28:25.110Z,16.51
2018-11-03T11:29:25.070Z,16.54
2018-11-03T11:31:17.948Z,16.57
2018-11-03T11:32:17.855Z,16.68
2018-11-03T11:34:10.675Z,16.68
2018-11-03T11:35:10.630Z,16.87
2018-11-03T11:37:03.475Z,16.91
2018-11-03T11:38:03.420Z,16.89
2018-11-03T11:39:56.219Z,17.04
2018-11-03T11:40:56.190Z,17.14
2018-11-03T11:42:49.112Z,17.27
2018-11-03T11:43:49.065Z,17.31
2018-11-03T11:45:41.878Z,17.23
2018-11-03T11:46:41.835Z,17.24
2018-11-03T11:48:34.672Z,17.14
2018-11-03T11:49:34.619Z,17.12
2018-11-03T11:51:27.462Z,17.36
2018-11-03T11:52:27.401Z,17.48
2018-11-03T11:54:20.245Z,17.67
2018-11-03T11:55:20.205Z,17.54
2018-11-03T11:57:13.016Z,17.51
2018-11-03T11:58:12.972Z,17.36
2018-11-03T12:00:05.775Z,17.08
2018-11-03T12:01:05.736Z,16.99
2018-11-03T12:02:58.563Z,16.83
2018-11-03T12:03:58.517Z,16.76
2018-11-03T12:05:51.340Z,16.56
2018-11-03T12:06:51.305Z,16.61
2018-11-03T12:08:44.127Z,16.47
2018-11-03T12:09:44.088Z,16.51
2018-11-03T12:11:36.929Z,16.23
2018-11-03T12:12:36.890Z,16.04
2018-11-03T12:14:29.718Z,15.84
2018-11-03T12:15:29.666Z,15.44
2018-11-03T12:17:22.497Z,15.65
2018-11-03T12:18:22.448Z,15.77
2018-11-03T12:20:15.278Z,15.73
2018-11-03T12:21:15.225Z,15.42
2018-11-03T12:23:08.090Z,15.49
2018-11-03T12:24:08.013Z,15.40
2018-11-03T12:26:00.832Z,15.02
2018-11-03T12:27:00.789Z,15.04
2018-11-03T12:28:53.603Z,14.58
2018-11-03T12:29:53.556Z,14.69
2018-11-03T12:31:46.359Z,14.32
2018-11-03T12:32:46.319Z,13.77
2018-11-03T12:34:39.149Z,13.33
2018-11-03T12:35:39.114Z,13.23
2018-11-03T12:37:31.926Z,13.63
2018-11-03T12:38:31.873Z,13.74
2018-11-03T12:40:24.691Z,13.68
2018-11-03T12:41:24.715Z,13.74
2018-11-03T12:43:17.446Z,13.78
2018-11-03T12:44:17.417Z,13.75
2018-11-03T12:46:10.260Z,13.50
2018-11-03T12:47:10.197Z,13.50
2018-11-03T12:49:03.024Z,13.09
2018-11-03T12:50:02.989Z,13.13
2018-11-03T12:51:55.776Z,13.41
2018-11-03T12:52:55.736Z,13.46
2018-11-03T12:54:48.585Z,13.05
2018-11-03T12:55:48.520Z,13.09
2018-11-03T12:57:41.308Z,13.44
2018-11-03T12:58:41.270Z,13.62
2018-11-03T13:00:34.106Z,13.79
2018-11-03T13:01:34.055Z,13.77
2018-11-03T13:03:26.860Z,13.72
2018-11-03T13:04:26.849Z,13.79
2018-11-03T13:06:19.660Z,13.50
2018-11-03T13:07:19.595Z,13.56
2018-11-03T13:09:12.428Z,13.67
2018-11-03T13:10:12.363Z,13.65
2018-11-03T13:12:05.244Z,13.41
2018-11-03T13:13:05.131Z,13.20
2018-11-03T13:14:57.938Z,13.01
2018-11-03T13:15:57.906Z,12.85
2018-11-03T13:17:50.728Z,12.98
2018-11-03T13:18:50.678Z,12.97
2018-11-03T13:20:43.508Z,13.11
2018-11-03T13:21:43.441Z,13.11
2018-11-03T13:23:36.271Z,13.05
2018-11-03T13:24:36.216Z,13.04
2018-11-03T13:26:29.051Z,13.22
2018-11-03T13:27:29.003Z,13.22
2018-11-03T13:29:21.815Z,13.12
2018-11-03T13:30:21.784Z,13.15
2018-11-03T13:32:14.599Z,13.13
2018-11-03T13:33:14.545Z,13.05
2018-11-03T13:35:07.453Z,13.11
2018-11-03T13:36:07.319Z,13.18
2018-11-03T13:38:00.132Z,13.16
2018-11-03T13:39:00.082Z,13.04
2018-11-03T13:40:52.903Z,12.86
2018-11-03T13:41:52.865Z,12.82
2018-11-03T13:43:45.680Z,12.98
2018-11-03T13:44:45.625Z,13.04
2018-11-03T13:46:38.476Z,13.03
2018-11-03T13:47:38.482Z,13.01
2018-11-03T13:49:31.210Z,13.11
2018-11-03T13:50:31.171Z,13.09
2018-11-03T13:52:23.998Z,12.98
2018-11-03T13:53:23.934Z,12.98
2018-11-03T13:55:16.750Z,12.97
2018-11-03T13:56:16.717Z,13.03
2018-11-03T13:58:09.550Z,13.08
2018-11-03T13:59:09.482Z,13.05
2018-11-03T14:01:02.313Z,13.12
2018-11-03T14:02:02.257Z,13.27
2018-11-03T14:03:55.076Z,13.35
2018-11-03T14:04:55.034Z,13.35
2018-11-03T14:06:47.845Z,13.39
2018-11-03T14:07:47.797Z,13.35
2018-11-03T14:09:40.643Z,13.46
2018-11-03T14:10:40.572Z,13.57
2018-11-03T14:12:33.379Z,13.59
2018-11-03T14:13:33.354Z,13.78
2018-11-03T14:15:26.179Z,13.95
2018-11-03T14:16:26.136Z,14.22
2018-11-03T14:18:18.957Z,14.44
2018-11-03T14:19:18.893Z,14.63
2018-11-03T14:21:11.702Z,14.72
2018-11-03T14:22:11.673Z,14.69
2018-11-03T14:24:04.489Z,14.79
2018-11-03T14:25:04.430Z,14.58
2018-11-03T14:26:57.243Z,14.55
2018-11-03T14:27:57.271Z,14.41
2018-11-03T14:29:50.041Z,14.18
2018-11-03T14:30:49.991Z,14.12
2018-11-03T14:32:42.812Z,13.95
2018-11-03T14:33:42.767Z,13.78
2018-11-03T14:35:35.579Z,13.75
2018-11-03T14:36:35.532Z,13.67
2018-11-03T14:38:28.350Z,13.46
2018-11-03T14:39:28.307Z,13.30
2018-11-03T14:41:21.114Z,13.25
2018-11-03T14:42:21.078Z,13.23
2018-11-03T14:44:13.897Z,13.00
2018-11-03T14:45:13.922Z,13.01
2018-11-03T14:47:06.653Z,12.93
2018-11-03T14:48:06.612Z,12.82
2018-11-03T14:49:59.428Z,12.80
2018-11-03T14:50:59.441Z,12.64
2018-11-03T14:52:52.205Z,12.64
2018-11-03T14:53:52.153Z,12.64
2018-11-03T14:55:44.978Z,12.65
2018-11-03T14:56:44.959Z,12.45
2018-11-03T14:58:37.749Z,12.36
2018-11-03T14:59:37.716Z,12.27
2018-11-03T15:01:30.527Z,12.17
2018-11-03T15:02:30.469Z,12.15
2018-11-03T15:04:23.275Z,12.04
2018-11-03T15:05:23.234Z,12.12
2018-11-03T15:07:16.051Z,11.94
2018-11-03T15:08:16.052Z,12.00
2018-11-03T15:10:08.822Z,11.86
2018-11-03T15:11:08.778Z,11.88
2018-11-03T15:13:01.583Z,11.77
2018-11-03T15:14:01.801Z,11.62
2018-11-03T15:15:54.364Z,11.59
2018-11-03T15:16:54.307Z,11.60
2018-11-03T15:18:47.108Z,11.51
2018-11-03T15:19:47.080Z,11.55
2018-11-03T15:21:39.910Z,11.43
2018-11-03T15:22:39.833Z,11.41
2018-11-03T15:24:32.634Z,11.32
2018-11-03T15:25:32.599Z,11.27
2018-11-03T15:27:25.431Z,11.27
2018-11-03T15:28:25.377Z,11.25
2018-11-03T15:30:18.171Z,11.15
2018-11-03T15:31:18.137Z,11.18
2018-11-03T15:33:10.955Z,11.10
2018-11-03T15:34:10.910Z,11.12
2018-11-03T15:36:03.730Z,10.93
2018-11-03T15:37:03.653Z,10.90
2018-11-03T15:38:56.460Z,10.84
2018-11-03T15:39:56.422Z,10.89
2018-11-03T15:41:49.245Z,10.82
2018-11-03T15:42:49.213Z,10.86
2018-11-03T15:44:41.992Z,10.67
2018-11-03T15:45:41.965Z,10.74
2018-11-03T15:47:34.837Z,10.68
2018-11-03T15:48:34.719Z,10.59
2018-11-03T15:50:27.530Z,10.61
2018-11-03T15:51:27.484Z,10.51
2018-11-03T15:53:20.300Z,10.41
2018-11-03T15:54:20.245Z,10.38
2018-11-03T15:56:13.048Z,10.40
2018-11-03T15:57:13.016Z,10.37
2018-11-03T15:59:05.830Z,10.35
2018-11-03T16:00:05.782Z,10.23
2018-11-03T16:01:58.593Z,10.26
2018-11-03T16:02:58.547Z,10.26
2018-11-03T16:04:51.363Z,10.09
2018-11-03T16:05:51.312Z,10.10
2018-11-03T16:07:44.116Z,10.10
2018-11-03T16:08:44.068Z,9.97
2018-11-03T16:10:36.888Z,9.94
2018-11-03T16:11:36.823Z,9.92
2018-11-03T16:13:29.629Z,9.82
2018-11-03T16:14:29.601Z,9.84
2018-11-03T16:16:22.427Z,9.74
2018-11-03T16:17:22.371Z,9.73
2018-11-03T16:19:15.188Z,9.68
2018-11-03T16:20:15.132Z,9.58
2018-11-03T16:22:07.961Z,9.54
2018-11-03T16:23:07.893Z,9.46
2018-11-03T16:25:00.719Z,9.34
2018-11-03T16:26:00.837Z,9.32
2018-11-03T16:27:53.468Z,9.32
2018-11-03T16:28:53.414Z,9.28
2018-11-03T16:30:46.238Z,9.14
2018-11-03T16:31:46.179Z,9.10
2018-11-03T16:33:38.977Z,9.00
2018-11-03T16:34:38.929Z,8.89
2018-11-03T16:36:31.773Z,8.92
2018-11-03T16:37:31.710Z,8.91
2018-11-03T16:39:24.514Z,8.88
2018-11-03T16:40:24.464Z,8.81
2018-11-03T16:42:17.283Z,8.78
2018-11-03T16:43:17.224Z,8.74
2018-11-03T16:45:10.050Z,8.64
2018-11-03T16:46:09.984Z,8.58
2018-11-03T16:48:02.785Z,8.55
2018-11-03T16:49:02.764Z,8.56
2018-11-03T16:50:55.584Z,8.61
2018-11-03T16:51:55.518Z,8.45
2018-11-03T16:53:48.313Z,8.44
2018-11-03T16:54:48.265Z,8.33
2018-11-03T16:56:41.094Z,8.42
2018-11-03T16:57:41.038Z,8.37
2018-11-03T16:59:33.839Z,8.24
2018-11-03T17:00:33.788Z,8.28
2018-11-03T17:02:26.619Z,8.16
2018-11-03T17:03:26.554Z,8.08
2018-11-03T17:05:19.363Z,8.08
2018-11-03T17:06:19.316Z,8.03
2018-11-03T17:08:12.138Z,7.95
2018-11-03T17:09:12.073Z,7.87
2018-11-03T17:11:04.896Z,7.79
2018-11-03T17:12:04.836Z,7.80
2018-11-03T17:13:57.636Z,7.72
2018-11-03T17:14:57.595Z,7.63
2018-11-03T17:16:50.399Z,7.57
2018-11-03T17:17:50.355Z,7.56
2018-11-03T17:19:43.158Z,7.61
2018-11-03T17:20:43.109Z,7.47
2018-11-03T17:22:35.944Z,7.50
2018-11-03T17:23:35.874Z,7.45
2018-11-03T17:25:28.674Z,7.53
2018-11-03T17:26:28.649Z,7.50
2018-11-03T17:28:21.465Z,7.39
2018-11-03T17:29:21.408Z,7.36
2018-11-03T17:31:14.253Z,7.35
2018-11-03T17:32:14.170Z,7.24
2018-11-03T17:34:06.989Z,7.24
2018-11-03T17:35:06.954Z,7.15
2018-11-03T17:36:59.748Z,7.13
2018-11-03T17:37:59.681Z,7.00
2018-11-03T17:39:52.473Z,7.00
2018-11-03T17:40:52.449Z,7.06
2018-11-03T17:42:45.270Z,7.03
2018-11-03T17:43:45.200Z,7.03
2018-11-03T17:45:38.011Z,6.99
2018-11-03T17:46:37.946Z,6.93
2018-11-03T17:48:30.779Z,6.99
2018-11-03T17:49:30.710Z,6.88
2018-11-03T17:51:23.510Z,6.82
2018-11-03T17:52:23.472Z,6.81
2018-11-03T17:54:16.286Z,6.87
2018-11-03T17:55:16.274Z,6.78
2018-11-03T17:57:09.050Z,6.74
2018-11-03T17:58:09.003Z,6.79
2018-11-03T18:00:01.907Z,6.82
2018-11-03T18:01:01.893Z,6.75
2018-11-03T18:02:54.584Z,6.64
2018-11-03T18:03:54.517Z,6.60
2018-11-03T18:05:47.337Z,6.56
2018-11-03T18:06:47.270Z,6.54
2018-11-03T18:08:40.932Z,6.49
2018-11-03T18:09:40.876Z,6.49
2018-11-03T18:11:33.686Z,6.45
2018-11-03T18:12:33.642Z,6.44
2018-11-03T18:14:26.458Z,6.27
2018-11-03T18:15:26.400Z,6.14
2018-11-03T18:17:19.201Z,6.17
2018-11-03T18:18:19.152Z,6.11
2018-11-03T18:20:11.982Z,6.09
2018-11-03T18:21:11.918Z,6.01
2018-11-03T18:23:05.251Z,6.01
2018-11-03T18:24:04.679Z,6.04
2018-11-03T18:25:57.518Z,6.02
2018-11-03T18:26:57.437Z,5.97
2018-11-03T18:28:50.232Z,5.97
2018-11-03T18:29:50.184Z,5.93
2018-11-03T18:31:42.981Z,5.86
2018-11-03T18:32:42.948Z,5.83
2018-11-03T18:34:35.818Z,5.87
2018-11-03T18:35:35.704Z,5.91
2018-11-03T18:37:28.508Z,5.87
2018-11-03T18:38:28.464Z,5.83
2018-11-03T18:40:21.284Z,5.84
2018-11-03T18:41:21.267Z,5.83
2018-11-03T18:43:14.024Z,5.83
2018-11-03T18:44:13.974Z,5.83
2018-11-03T18:46:06.792Z,5.82
2018-11-03T18:47:06.738Z,5.79
2018-11-03T18:48:59.521Z,5.84
2018-11-03T18:49:59.489Z,5.72
2018-11-03T18:51:52.303Z,5.72
2018-11-03T18:52:52.285Z,5.66
2018-11-03T18:54:45.039Z,5.71
2018-11-03T18:55:44.989Z,5.69
2018-11-03T18:57:37.817Z,5.65